Weather at Culbokie Airstrip

Public forecast

Using degrees Celsius for public forecast. Weather courtesy of forecast.io.

Closest aviation weather report (METAR) to Culbokie Airstrip

Closest report is Inverness Airport, 9.1 nm (16.8 km) ESE.

2024/05/21 14:20 (retrieved 12 minutes ago)

EGPE 211420Z 04006KT 9999 BKN005 12/11 Q1012

Closest aviation forecast (TAF) to Culbokie Airstrip

Closest forecast is RAF Lossiemouth, 32.2 nm (59.6 km) ENE.

2024/05/21 15:54 (retrieved 0 seconds ago)

TAF EGQS 211347Z 2115/2209 06014KT 9999 FEW048 PROB40 TEMPO 2115/2119 5000 SHRA SCT030CB PROB30 TEMPO 2115/2118 12015G25KT 3000 +TSGS +SHRA BKN020CB PROB30 2122/2209 2000 BR SCT004